Time;durP1;ratioP1;P1;durP2;ratioP2;P2;SDS_P1;SDS_P2;PMS_P1;PMS_P2;Temp;Humidity;BMP_temperature;BMP_pressure;BME280_temperature;BME280_humidity;BME280_pressure;Samples;Min_cycle;Max_cycle;Signal;HPM_P1;HPM_P2
2023/03/22 00:00:27;;;;;;;15.88;8.70;;;;;;;;;;5031109;28;20206;-65
2023/03/22 00:02:55;;;;;;;16.80;8.60;;;;;;;;;;5017334;28;20220;-65
2023/03/22 00:05:20;;;;;;;18.60;8.68;;;;;;;;;;5019689;28;20289;-66
2023/03/22 00:07:49;;;;;;;17.58;8.73;;;;;;;;;;5012381;28;20597;-66
2023/03/22 00:10:15;;;;;;;15.80;8.00;;;;;;;;;;5032750;28;20187;-66
2023/03/22 00:12:41;;;;;;;14.45;7.30;;;;;;;;;;5025799;28;20213;-65
2023/03/22 00:15:07;;;;;;;18.17;8.07;;;;;;;;;;5019009;28;20190;-65
2023/03/22 00:17:32;;;;;;;17.08;8.52;;;;;;;;;;5023952;28;20214;-65
2023/03/22 00:19:57;;;;;;;13.65;7.22;;;;;;;;;;5028415;28;20208;-66
2023/03/22 00:22:23;;;;;;;14.98;6.93;;;;;;;;;;5025175;28;20567;-67
2023/03/22 00:24:49;;;;;;;12.82;7.10;;;;;;;;;;5021889;28;20214;-66
2023/03/22 00:27:14;;;;;;;16.63;7.57;;;;;;;;;;5021775;28;20573;-66
2023/03/22 00:29:40;;;;;;;14.05;7.18;;;;;;;;;;5027534;28;20511;-66
2023/03/22 00:32:05;;;;;;;10.80;6.75;;;;;;;;;;5028124;28;20212;-66
2023/03/22 00:34:31;;;;;;;14.57;6.65;;;;;;;;;;5029226;28;20226;-66
2023/03/22 00:36:57;;;;;;;13.60;6.72;;;;;;;;;;5024730;28;20375;-66
2023/03/22 00:39:22;;;;;;;14.07;6.68;;;;;;;;;;5025404;28;20611;-65
2023/03/22 00:41:48;;;;;;;13.05;6.28;;;;;;;;;;5017884;28;20202;-66
2023/03/22 00:44:13;;;;;;;11.48;6.22;;;;;;;;;;5023163;28;20622;-66
2023/03/22 00:46:38;;;;;;;16.25;6.13;;;;;;;;;;5025247;28;20276;-66
2023/03/22 00:49:04;;;;;;;15.82;6.22;;;;;;;;;;5024592;28;20215;-66
2023/03/22 00:51:29;;;;;;;9.20;5.82;;;;;;;;;;5024261;28;20187;-66
2023/03/22 00:53:55;;;;;;;11.38;6.07;;;;;;;;;;5023801;28;20194;-66
2023/03/22 00:56:21;;;;;;;14.52;6.38;;;;;;;;;;5030333;28;20205;-66
2023/03/22 00:58:47;;;;;;;12.90;6.25;;;;;;;;;;5023634;28;20198;-66
2023/03/22 01:01:13;;;;;;;15.13;5.45;;;;;;;;;;5022345;28;20234;-66
2023/03/22 01:03:39;;;;;;;13.82;6.20;;;;;;;;;;5024391;28;20325;-66
2023/03/22 01:06:05;;;;;;;14.55;5.68;;;;;;;;;;5030660;28;20727;-66
2023/03/22 01:08:31;;;;;;;14.88;5.05;;;;;;;;;;5018470;28;20190;-66
2023/03/22 01:10:57;;;;;;;10.73;4.82;;;;;;;;;;5026779;28;20194;-66
2023/03/22 01:13:22;;;;;;;10.15;4.90;;;;;;;;;;5028794;28;20186;-66
2023/03/22 01:15:51;;;;;;;12.65;4.95;;;;;;;;;;5031903;28;20190;-66
2023/03/22 01:18:17;;;;;;;12.85;5.22;;;;;;;;;;5007793;28;20556;-66
2023/03/22 01:20:42;;;;;;;13.80;4.97;;;;;;;;;;5030003;28;20277;-65
2023/03/22 01:23:08;;;;;;;9.70;4.80;;;;;;;;;;5029528;28;20269;-65
2023/03/22 01:25:33;;;;;;;12.13;5.53;;;;;;;;;;5023431;28;20317;-65
2023/03/22 01:28:01;;;;;;;11.63;4.38;;;;;;;;;;5017748;28;20233;-65
2023/03/22 01:30:27;;;;;;;10.23;4.25;;;;;;;;;;5031825;28;20627;-65
2023/03/22 01:32:53;;;;;;;8.23;4.35;;;;;;;;;;5022845;28;20186;-64
2023/03/22 01:35:18;;;;;;;8.98;4.47;;;;;;;;;;5027476;28;20229;-65
2023/03/22 01:37:43;;;;;;;9.73;4.22;;;;;;;;;;5018553;28;20209;-67
2023/03/22 01:40:11;;;;;;;10.02;4.55;;;;;;;;;;5024823;28;20236;-65
2023/03/22 01:42:37;;;;;;;11.10;4.55;;;;;;;;;;5007992;28;20190;-65
2023/03/22 01:45:15;;;;;;;10.05;4.50;;;;;;;;;;5023240;28;20515;-65
2023/03/22 01:47:55;;;;;;;9.13;4.45;;;;;;;;;;5024826;28;20209;-66
2023/03/22 01:50:21;;;;;;;7.80;4.43;;;;;;;;;;5023224;28;20195;-66
2023/03/22 01:52:49;;;;;;;11.25;4.90;;;;;;;;;;5025407;28;20197;-65
2023/03/22 01:55:17;;;;;;;7.95;4.97;;;;;;;;;;5021817;28;20584;-66
2023/03/22 01:57:43;;;;;;;12.20;4.88;;;;;;;;;;5021080;28;20268;-65
2023/03/22 02:00:14;;;;;;;10.75;5.47;;;;;;;;;;5026391;28;20206;-65
2023/03/22 02:02:42;;;;;;;10.20;5.65;;;;;;;;;;5020871;28;20190;-65
2023/03/22 02:05:08;;;;;;;10.18;5.25;;;;;;;;;;5026686;28;20279;-65
2023/03/22 02:07:36;;;;;;;13.15;5.65;;;;;;;;;;5027857;28;20280;-65
2023/03/22 02:10:01;;;;;;;11.10;5.78;;;;;;;;;;5018814;28;20281;-66
2023/03/22 02:13:04;;;;;;;15.63;5.70;;;;;;;;;;5021444;28;20729;-65
2023/03/22 02:15:45;;;;;;;14.82;6.22;;;;;;;;;;5025936;28;20193;-66
2023/03/22 02:18:19;;;;;;;15.65;6.40;;;;;;;;;;5016725;28;20194;-66
2023/03/22 02:21:22;;;;;;;14.40;6.68;;;;;;;;;;5024834;28;20198;-66
2023/03/22 02:24:10;;;;;;;14.50;6.32;;;;;;;;;;5017161;28;20317;-66
2023/03/22 02:26:59;;;;;;;13.35;5.85;;;;;;;;;;5025858;28;20301;-66
2023/03/22 02:29:35;;;;;;;12.50;6.60;;;;;;;;;;5019197;28;20234;-66
2023/03/22 02:32:38;;;;;;;12.90;6.72;;;;;;;;;;5018599;28;20527;-65
2023/03/22 02:35:28;;;;;;;13.43;6.68;;;;;;;;;;5027476;28;20272;-65
2023/03/22 02:38:16;;;;;;;11.45;6.72;;;;;;;;;;5026704;28;20650;-66
2023/03/22 02:41:10;;;;;;;10.82;6.35;;;;;;;;;;5029331;28;20209;-65
2023/03/22 02:43:51;;;;;;;13.57;6.55;;;;;;;;;;5038451;28;20201;-66
2023/03/22 02:46:38;;;;;;;11.82;6.47;;;;;;;;;;5025776;28;20267;-66
2023/03/22 02:49:14;;;;;;;12.63;7.13;;;;;;;;;;5020505;28;20196;-65
2023/03/22 02:51:39;;;;;;;10.70;6.05;;;;;;;;;;5018723;28;20591;-65
2023/03/22 02:54:12;;;;;;;12.93;7.32;;;;;;;;;;5026095;28;20217;-66
2023/03/22 02:56:52;;;;;;;12.35;6.75;;;;;;;;;;5032365;28;20189;-66
2023/03/22 02:59:20;;;;;;;13.13;6.95;;;;;;;;;;5025173;28;20232;-66
2023/03/22 03:01:52;;;;;;;14.38;7.53;;;;;;;;;;5034474;28;20267;-67
2023/03/22 03:04:23;;;;;;;14.15;6.85;;;;;;;;;;5017556;28;20190;-66
2023/03/22 03:06:51;;;;;;;12.73;7.53;;;;;;;;;;5029046;28;20214;-66
2023/03/22 03:09:18;;;;;;;13.68;7.75;;;;;;;;;;5014377;28;20187;-66
2023/03/22 03:11:50;;;;;;;15.57;7.63;;;;;;;;;;5019342;28;20187;-66
2023/03/22 03:14:20;;;;;;;18.42;7.97;;;;;;;;;;5026617;28;20686;-67
2023/03/22 03:16:47;;;;;;;12.95;7.40;;;;;;;;;;5026073;28;20187;-66
2023/03/22 03:19:39;;;;;;;14.55;7.65;;;;;;;;;;5012272;28;20190;-65
2023/03/22 03:22:39;;;;;;;14.70;7.25;;;;;;;;;;5038976;28;20257;-65
2023/03/22 03:26:03;;;;;;;14.52;8.30;;;;;;;;;;5027876;28;20559;-66
2023/03/22 03:28:37;;;;;;;14.80;7.45;;;;;;;;;;4940860;28;20553;-65
2023/03/22 03:31:09;;;;;;;18.02;8.52;;;;;;;;;;5014946;28;20186;-65
2023/03/22 03:33:42;;;;;;;17.38;9.00;;;;;;;;;;5033343;28;20209;-66
2023/03/22 03:36:09;;;;;;;12.95;9.05;;;;;;;;;;5027620;28;20190;-65
2023/03/22 03:38:39;;;;;;;14.90;9.05;;;;;;;;;;5036243;28;20185;-65
2023/03/22 03:41:11;;;;;;;16.48;9.55;;;;;;;;;;5030100;28;20248;-65
2023/03/22 03:43:38;;;;;;;16.30;8.80;;;;;;;;;;5026733;28;20171;-65
2023/03/22 03:46:05;;;;;;;16.98;10.00;;;;;;;;;;5027484;28;20416;-66
2023/03/22 03:48:33;;;;;;;15.93;10.23;;;;;;;;;;5026544;28;20257;-66
2023/03/22 03:51:00;;;;;;;15.90;9.82;;;;;;;;;;5015429;28;20658;-65
2023/03/22 03:53:26;;;;;;;15.02;11.00;;;;;;;;;;5033651;28;20182;-66
2023/03/22 03:55:51;;;;;;;16.25;10.50;;;;;;;;;;5026361;28;20197;-66
2023/03/22 03:58:16;;;;;;;26.10;10.85;;;;;;;;;;5030759;28;20197;-66
2023/03/22 04:00:44;;;;;;;19.15;11.30;;;;;;;;;;5020089;28;20368;-66
2023/03/22 04:03:10;;;;;;;19.35;12.23;;;;;;;;;;5027082;28;20202;-66
2023/03/22 04:05:35;;;;;;;21.00;11.30;;;;;;;;;;5027205;28;20217;-66
2023/03/22 04:08:01;;;;;;;21.52;12.05;;;;;;;;;;5031487;28;20182;-66
2023/03/22 04:10:26;;;;;;;20.20;11.35;;;;;;;;;;5012434;28;20658;-66
2023/03/22 04:12:51;;;;;;;17.38;10.90;;;;;;;;;;5021815;28;20202;-66
2023/03/22 04:15:17;;;;;;;19.92;11.35;;;;;;;;;;5026177;28;20182;-66
2023/03/22 04:17:42;;;;;;;19.23;11.57;;;;;;;;;;5028666;28;20669;-65
2023/03/22 04:20:09;;;;;;;18.00;11.68;;;;;;;;;;5028813;28;20192;-66
2023/03/22 04:22:39;;;;;;;18.88;11.38;;;;;;;;;;5024561;28;20205;-65
2023/03/22 04:25:10;;;;;;;18.95;12.35;;;;;;;;;;5023761;28;20260;-65
2023/03/22 04:27:40;;;;;;;18.50;11.85;;;;;;;;;;5026427;28;20308;-66
2023/03/22 04:30:11;;;;;;;18.92;11.35;;;;;;;;;;5028071;28;20195;-66
2023/03/22 04:32:37;;;;;;;18.52;11.95;;;;;;;;;;5016004;28;20217;-66
2023/03/22 04:35:04;;;;;;;19.13;12.32;;;;;;;;;;5030974;28;20182;-66
2023/03/22 04:37:32;;;;;;;19.50;12.30;;;;;;;;;;5028604;28;20252;-66
2023/03/22 04:39:58;;;;;;;17.25;11.50;;;;;;;;;;5030099;28;20186;-66
2023/03/22 04:42:24;;;;;;;19.77;11.63;;;;;;;;;;5024963;28;20199;-66
2023/03/22 04:44:50;;;;;;;20.38;12.20;;;;;;;;;;5027052;28;20218;-66
2023/03/22 04:47:17;;;;;;;21.20;11.73;;;;;;;;;;5027811;28;20213;-65
2023/03/22 04:49:43;;;;;;;19.80;12.32;;;;;;;;;;5025357;28;20272;-66
2023/03/22 04:52:08;;;;;;;20.10;11.30;;;;;;;;;;5025913;28;20213;-66
2023/03/22 04:54:33;;;;;;;17.83;11.20;;;;;;;;;;5025342;28;20193;-66
2023/03/22 04:56:59;;;;;;;24.17;12.20;;;;;;;;;;5027785;28;20268;-66
2023/03/22 04:59:25;;;;;;;16.17;10.27;;;;;;;;;;5032136;28;20194;-65
2023/03/22 05:01:51;;;;;;;22.17;11.45;;;;;;;;;;5031673;28;20210;-66
2023/03/22 05:04:17;;;;;;;18.13;11.52;;;;;;;;;;5013094;28;20225;-65
2023/03/22 05:06:43;;;;;;;20.00;10.77;;;;;;;;;;5024392;28;20210;-65
2023/03/22 05:09:11;;;;;;;22.10;11.27;;;;;;;;;;5012766;28;20442;-65
2023/03/22 05:11:36;;;;;;;16.23;10.90;;;;;;;;;;5028673;28;20572;-66
2023/03/22 05:14:02;;;;;;;17.77;10.52;;;;;;;;;;5026194;28;20190;-66
2023/03/22 05:16:28;;;;;;;18.38;10.18;;;;;;;;;;5020082;28;20187;-67
2023/03/22 05:18:54;;;;;;;18.48;10.13;;;;;;;;;;5020234;28;20272;-67
2023/03/22 05:21:27;;;;;;;17.42;10.00;;;;;;;;;;5022530;28;20649;-65
2023/03/22 05:23:53;;;;;;;15.98;9.75;;;;;;;;;;5021517;28;20553;-66
2023/03/22 05:26:19;;;;;;;20.98;10.00;;;;;;;;;;5022339;28;20253;-66
2023/03/22 05:28:45;;;;;;;18.83;10.30;;;;;;;;;;5019215;28;21787;-65
2023/03/22 05:31:13;;;;;;;15.65;9.00;;;;;;;;;;5027277;28;20280;-65
2023/03/22 05:33:40;;;;;;;21.45;10.48;;;;;;;;;;5027564;28;20595;-65
2023/03/22 05:36:06;;;;;;;20.63;10.48;;;;;;;;;;5031084;28;20202;-67
2023/03/22 05:38:32;;;;;;;20.50;9.50;;;;;;;;;;5025341;28;20205;-66
2023/03/22 05:40:58;;;;;;;22.27;9.80;;;;;;;;;;5026390;28;20267;-67
2023/03/22 05:43:23;;;;;;;18.55;9.13;;;;;;;;;;5016823;28;20190;-66
2023/03/22 05:45:49;;;;;;;18.23;8.65;;;;;;;;;;5027235;28;20323;-66
2023/03/22 05:48:15;;;;;;;16.75;8.88;;;;;;;;;;5020517;28;20190;-66
2023/03/22 05:50:41;;;;;;;15.07;9.15;;;;;;;;;;5020934;28;20221;-66
2023/03/22 05:53:07;;;;;;;15.02;9.15;;;;;;;;;;5026630;28;20296;-66
2023/03/22 05:55:32;;;;;;;20.00;9.00;;;;;;;;;;5020011;28;20194;-66
2023/03/22 05:58:00;;;;;;;14.80;8.57;;;;;;;;;;5028686;28;20189;-66
2023/03/22 06:00:25;;;;;;;11.35;7.80;;;;;;;;;;5022626;28;20205;-66
2023/03/22 06:02:55;;;;;;;13.80;8.45;;;;;;;;;;5025524;28;20194;-66
2023/03/22 06:05:20;;;;;;;21.13;7.95;;;;;;;;;;5021080;28;20226;-66
2023/03/22 06:07:46;;;;;;;14.95;7.50;;;;;;;;;;5025821;28;20187;-66
2023/03/22 06:10:13;;;;;;;16.38;7.95;;;;;;;;;;5026126;28;20529;-66
2023/03/22 06:12:39;;;;;;;15.50;8.00;;;;;;;;;;5026984;28;20186;-66
2023/03/22 06:15:05;;;;;;;13.63;6.78;;;;;;;;;;5028226;28;20190;-65
2023/03/22 06:17:30;;;;;;;14.75;7.15;;;;;;;;;;5033240;28;20218;-65
2023/03/22 06:19:56;;;;;;;14.85;7.15;;;;;;;;;;5033471;28;20232;-65
2023/03/22 06:22:22;;;;;;;15.35;7.07;;;;;;;;;;5030174;28;20186;-65
2023/03/22 06:24:48;;;;;;;13.70;6.50;;;;;;;;;;5019766;28;20194;-65
2023/03/22 06:27:14;;;;;;;12.18;6.00;;;;;;;;;;5033874;28;20256;-65
2023/03/22 06:29:40;;;;;;;14.02;6.35;;;;;;;;;;5031390;28;20182;-66
2023/03/22 06:32:05;;;;;;;12.88;6.45;;;;;;;;;;5033751;28;20208;-65
2023/03/22 06:34:31;;;;;;;16.17;6.97;;;;;;;;;;5011776;28;20646;-66
2023/03/22 06:36:56;;;;;;;10.95;5.82;;;;;;;;;;5030354;28;20545;-65
2023/03/22 06:39:22;;;;;;;14.65;6.00;;;;;;;;;;5022203;28;20202;-65
2023/03/22 06:41:47;;;;;;;13.88;5.97;;;;;;;;;;5025712;28;20682;-65
2023/03/22 06:44:14;;;;;;;17.42;5.82;;;;;;;;;;5020515;28;20202;-65
2023/03/22 06:46:39;;;;;;;9.43;5.18;;;;;;;;;;5022992;28;20203;-65
2023/03/22 06:49:05;;;;;;;16.40;5.70;;;;;;;;;;5019090;28;20657;-66
2023/03/22 06:51:30;;;;;;;11.13;4.90;;;;;;;;;;5029865;28;20198;-66
2023/03/22 06:53:56;;;;;;;17.85;5.88;;;;;;;;;;5022041;28;20186;-65
2023/03/22 06:56:22;;;;;;;8.57;4.72;;;;;;;;;;5030751;28;20316;-66
2023/03/22 06:58:48;;;;;;;10.68;4.80;;;;;;;;;;5027260;28;20182;-65
2023/03/22 07:01:13;;;;;;;9.18;4.80;;;;;;;;;;5025663;28;20202;-66
2023/03/22 07:03:39;;;;;;;12.07;4.32;;;;;;;;;;5021376;28;20240;-66
2023/03/22 07:06:07;;;;;;;15.13;4.82;;;;;;;;;;5022206;28;20260;-65
2023/03/22 07:08:33;;;;;;;15.70;5.15;;;;;;;;;;5009964;28;20183;-66
2023/03/22 07:10:58;;;;;;;7.90;3.92;;;;;;;;;;5013305;28;20244;-65
2023/03/22 07:13:24;;;;;;;10.02;4.20;;;;;;;;;;5019852;28;20278;-65
2023/03/22 07:15:57;;;;;;;10.93;3.92;;;;;;;;;;5021532;28;20174;-65
2023/03/22 07:18:23;;;;;;;11.30;3.63;;;;;;;;;;5027121;28;20266;-66
2023/03/22 07:20:49;;;;;;;9.43;3.40;;;;;;;;;;5029448;28;20432;-65
2023/03/22 07:23:15;;;;;;;9.65;3.58;;;;;;;;;;5029712;28;20202;-65
2023/03/22 07:25:41;;;;;;;8.77;3.25;;;;;;;;;;5015409;28;20212;-65
2023/03/22 07:28:06;;;;;;;8.43;3.35;;;;;;;;;;5030137;28;20258;-65
2023/03/22 07:30:36;;;;;;;9.45;3.60;;;;;;;;;;5030615;28;20256;-65
2023/03/22 07:33:02;;;;;;;9.27;3.20;;;;;;;;;;5025572;28;20193;-65
2023/03/22 07:35:28;;;;;;;6.93;3.10;;;;;;;;;;5022988;28;20189;-65
2023/03/22 07:37:54;;;;;;;8.45;2.97;;;;;;;;;;5010802;28;20190;-65
2023/03/22 07:40:19;;;;;;;11.00;3.60;;;;;;;;;;5012176;28;20180;-66
2023/03/22 07:42:50;;;;;;;11.50;3.08;;;;;;;;;;5024733;28;20202;-65
2023/03/22 07:45:19;;;;;;;8.82;3.00;;;;;;;;;;5012245;28;20218;-65
2023/03/22 07:47:45;;;;;;;9.95;3.00;;;;;;;;;;5030006;28;20265;-67
2023/03/22 07:50:12;;;;;;;7.50;2.95;;;;;;;;;;5025830;28;20705;-66
2023/03/22 07:52:41;;;;;;;7.95;2.70;;;;;;;;;;5029327;28;20178;-66
2023/03/22 07:55:08;;;;;;;8.57;3.10;;;;;;;;;;5022653;28;20288;-66
2023/03/22 07:57:35;;;;;;;6.47;3.10;;;;;;;;;;5029571;28;20557;-66
2023/03/22 08:00:03;;;;;;;8.43;3.10;;;;;;;;;;5028368;28;20197;-67
2023/03/22 08:02:29;;;;;;;9.52;2.78;;;;;;;;;;5024412;28;20259;-65
2023/03/22 08:04:54;;;;;;;11.68;2.95;;;;;;;;;;5028596;28;20216;-65
2023/03/22 08:07:20;;;;;;;6.75;2.33;;;;;;;;;;5020749;28;20190;-65
2023/03/22 08:09:46;;;;;;;6.80;2.72;;;;;;;;;;5018568;28;20202;-65
2023/03/22 08:12:11;;;;;;;7.95;3.00;;;;;;;;;;5019383;28;20198;-65
2023/03/22 08:14:37;;;;;;;11.93;3.28;;;;;;;;;;5018361;28;20198;-65
2023/03/22 08:17:04;;;;;;;8.27;2.75;;;;;;;;;;5019073;28;20557;-65
2023/03/22 08:19:30;;;;;;;5.15;2.60;;;;;;;;;;5022616;28;20727;-65
2023/03/22 08:21:56;;;;;;;7.57;2.80;;;;;;;;;;5031858;28;20849;-65
2023/03/22 08:24:21;;;;;;;9.30;3.35;;;;;;;;;;5018485;28;20189;-66
2023/03/22 08:26:48;;;;;;;8.82;2.50;;;;;;;;;;5018836;28;20209;-66
2023/03/22 08:29:14;;;;;;;6.05;2.92;;;;;;;;;;5024514;28;20232;-66
2023/03/22 08:31:40;;;;;;;7.75;3.00;;;;;;;;;;5028657;28;20300;-66
2023/03/22 08:34:06;;;;;;;7.68;2.60;;;;;;;;;;5029852;28;20208;-65
2023/03/22 08:36:31;;;;;;;13.35;3.33;;;;;;;;;;5011306;28;20186;-66
2023/03/22 08:38:57;;;;;;;12.55;3.50;;;;;;;;;;5012155;28;20182;-66
2023/03/22 08:41:22;;;;;;;10.07;3.30;;;;;;;;;;5013338;28;20193;-65
2023/03/22 08:43:48;;;;;;;9.70;3.13;;;;;;;;;;5019223;28;20198;-66
2023/03/22 08:46:13;;;;;;;11.60;3.30;;;;;;;;;;5030099;28;20210;-67
2023/03/22 08:48:40;;;;;;;13.45;3.55;;;;;;;;;;5029672;28;20611;-66
2023/03/22 08:51:06;;;;;;;6.70;2.88;;;;;;;;;;5028337;28;20272;-66
2023/03/22 08:53:31;;;;;;;8.63;2.72;;;;;;;;;;5011598;28;20618;-66
2023/03/22 08:56:00;;;;;;;9.82;3.33;;;;;;;;;;5011519;28;20187;-67
2023/03/22 08:58:26;;;;;;;8.10;3.58;;;;;;;;;;5028156;28;20186;-66
2023/03/22 09:00:51;;;;;;;8.82;3.75;;;;;;;;;;5026910;28;20561;-67
2023/03/22 09:03:17;;;;;;;9.30;3.00;;;;;;;;;;5029848;28;20202;-66
2023/03/22 09:05:42;;;;;;;9.57;3.10;;;;;;;;;;5022761;28;20220;-66
2023/03/22 09:08:08;;;;;;;7.80;3.15;;;;;;;;;;5017016;28;20220;-66
2023/03/22 09:10:33;;;;;;;5.70;2.30;;;;;;;;;;5014287;28;20205;-66
2023/03/22 09:12:59;;;;;;;11.30;3.10;;;;;;;;;;5024490;28;20186;-66
2023/03/22 09:15:25;;;;;;;6.55;2.70;;;;;;;;;;5015855;28;20330;-66
2023/03/22 09:17:50;;;;;;;10.90;2.65;;;;;;;;;;5024496;28;20220;-66
2023/03/22 09:20:17;;;;;;;12.00;2.85;;;;;;;;;;5010051;28;20197;-66
2023/03/22 09:22:42;;;;;;;11.70;2.95;;;;;;;;;;5024154;28;20190;-67
2023/03/22 09:25:08;;;;;;;6.70;2.60;;;;;;;;;;5014921;28;20213;-66
2023/03/22 09:27:33;;;;;;;9.20;3.15;;;;;;;;;;5023015;28;20732;-65
2023/03/22 09:29:59;;;;;;;8.18;2.63;;;;;;;;;;5016943;28;20205;-66
2023/03/22 09:32:25;;;;;;;11.00;2.58;;;;;;;;;;5026898;28;20281;-66
2023/03/22 09:34:50;;;;;;;9.48;2.72;;;;;;;;;;5009331;28;20221;-66
2023/03/22 09:37:17;;;;;;;5.03;2.58;;;;;;;;;;5012066;28;20198;-65
2023/03/22 09:39:43;;;;;;;10.32;2.83;;;;;;;;;;5020841;28;20203;-66
2023/03/22 09:42:24;;;;;;;10.55;2.95;;;;;;;;;;5025043;28;20780;-66
2023/03/22 09:44:50;;;;;;;6.78;2.53;;;;;;;;;;5016957;28;20264;-66
2023/03/22 09:47:19;;;;;;;11.15;2.85;;;;;;;;;;5027944;28;20193;-67
2023/03/22 09:49:49;;;;;;;9.13;2.97;;;;;;;;;;5021432;28;20190;-67
2023/03/22 09:52:16;;;;;;;10.15;3.33;;;;;;;;;;5028490;28;20182;-66
2023/03/22 09:54:44;;;;;;;14.70;3.03;;;;;;;;;;5019638;28;20225;-66
2023/03/22 09:57:31;;;;;;;12.05;2.85;;;;;;;;;;5022981;28;20190;-66
2023/03/22 10:00:22;;;;;;;4.90;2.40;;;;;;;;;;5015641;28;20671;-66
2023/03/22 10:03:08;;;;;;;7.90;2.42;;;;;;;;;;5014088;28;20197;-66
2023/03/22 10:05:48;;;;;;;13.55;2.78;;;;;;;;;;5022107;28;20694;-66
2023/03/22 10:08:17;;;;;;;11.75;2.78;;;;;;;;;;5019638;28;20253;-65
2023/03/22 10:10:42;;;;;;;7.25;2.70;;;;;;;;;;5016781;28;20195;-65
2023/03/22 10:13:18;;;;;;;9.00;2.58;;;;;;;;;;5014015;28;20256;-65
2023/03/22 10:15:46;;;;;;;7.43;2.80;;;;;;;;;;5024142;28;20356;-65
2023/03/22 10:18:18;;;;;;;7.18;2.40;;;;;;;;;;5029286;28;20716;-66
2023/03/22 10:21:06;;;;;;;9.02;3.05;;;;;;;;;;5020531;28;20565;-66
2023/03/22 10:23:48;;;;;;;9.82;2.55;;;;;;;;;;5021917;28;20197;-65
2023/03/22 10:26:21;;;;;;;8.85;2.30;;;;;;;;;;5022440;28;20210;-65
2023/03/22 10:29:02;;;;;;;6.78;2.20;;;;;;;;;;5027756;28;20233;-66
2023/03/22 10:31:29;;;;;;;7.65;2.25;;;;;;;;;;5022121;28;20185;-65
2023/03/22 10:34:05;;;;;;;9.63;2.25;;;;;;;;;;5022231;28;20193;-66
2023/03/22 10:36:33;;;;;;;7.95;2.03;;;;;;;;;;5019567;28;20178;-65
2023/03/22 10:39:08;;;;;;;10.32;2.40;;;;;;;;;;5028837;28;20263;-66
2023/03/22 10:41:35;;;;;;;7.32;2.10;;;;;;;;;;5013714;28;20190;-66
2023/03/22 10:44:03;;;;;;;8.57;1.92;;;;;;;;;;5023770;28;20186;-66
2023/03/22 10:46:39;;;;;;;11.38;2.25;;;;;;;;;;5027303;28;20221;-66
2023/03/22 10:49:06;;;;;;;8.50;2.35;;;;;;;;;;5007346;28;20201;-65
2023/03/22 10:51:39;;;;;;;11.18;3.10;;;;;;;;;;5022306;28;20202;-66
2023/03/22 10:54:04;;;;;;;8.85;2.42;;;;;;;;;;5020048;28;20190;-66
2023/03/22 10:56:30;;;;;;;7.75;2.33;;;;;;;;;;5030474;28;20681;-66
2023/03/22 10:58:56;;;;;;;12.20;2.70;;;;;;;;;;5031017;28;20194;-66
2023/03/22 11:01:44;;;;;;;16.38;3.33;;;;;;;;;;5022496;28;20856;-65
2023/03/22 11:04:12;;;;;;;8.02;2.35;;;;;;;;;;5025254;28;20871;-67
2023/03/22 11:06:50;;;;;;;7.28;2.40;;;;;;;;;;5021496;28;20214;-66
2023/03/22 11:09:21;;;;;;;7.18;2.42;;;;;;;;;;5019685;28;20191;-66
2023/03/22 11:11:55;;;;;;;9.13;2.20;;;;;;;;;;5018684;28;20191;-66
2023/03/22 11:14:34;;;;;;;7.72;2.63;;;;;;;;;;5039090;28;20327;-66
2023/03/22 11:17:05;;;;;;;9.25;2.58;;;;;;;;;;5020992;28;20665;-68
2023/03/22 11:19:35;;;;;;;10.90;2.70;;;;;;;;;;5010854;28;20643;-69
2023/03/22 11:22:04;;;;;;;11.63;2.67;;;;;;;;;;5022319;28;20197;-69
2023/03/22 11:24:31;;;;;;;8.10;2.50;;;;;;;;;;5031102;28;20201;-68
2023/03/22 11:27:06;;;;;;;7.85;2.67;;;;;;;;;;5031391;28;20568;-68
2023/03/22 11:29:52;;;;;;;13.18;3.15;;;;;;;;;;5025201;28;20604;-67
2023/03/22 11:32:38;;;;;;;10.55;2.80;;;;;;;;;;5028631;28;20565;-68
2023/03/22 11:35:15;;;;;;;10.75;2.70;;;;;;;;;;5024577;28;20190;-69
2023/03/22 11:37:49;;;;;;;7.30;2.38;;;;;;;;;;5026070;28;20186;-67
2023/03/22 11:40:24;;;;;;;11.57;2.50;;;;;;;;;;5016254;28;20194;-67
2023/03/22 11:43:08;;;;;;;11.40;2.65;;;;;;;;;;5025364;28;20267;-67
2023/03/22 11:45:36;;;;;;;6.47;2.30;;;;;;;;;;5011187;28;20217;-67
2023/03/22 11:48:04;;;;;;;10.90;2.28;;;;;;;;;;5026126;28;20201;-67
2023/03/22 11:50:33;;;;;;;10.70;2.40;;;;;;;;;;5030277;28;20186;-67
2023/03/22 11:53:02;;;;;;;9.75;2.53;;;;;;;;;;5030433;28;20637;-67
2023/03/22 11:55:30;;;;;;;7.93;2.05;;;;;;;;;;5028079;28;20186;-67
2023/03/22 11:57:56;;;;;;;8.93;2.60;;;;;;;;;;5028012;28;20549;-67
2023/03/22 12:00:28;;;;;;;6.57;2.63;;;;;;;;;;5022216;28;20221;-67
2023/03/22 12:03:00;;;;;;;8.95;2.50;;;;;;;;;;5025059;28;20201;-67
2023/03/22 12:05:27;;;;;;;7.93;2.20;;;;;;;;;;5022739;28;20285;-66
2023/03/22 12:08:00;;;;;;;8.48;2.03;;;;;;;;;;5029772;28;20194;-68
2023/03/22 12:10:37;;;;;;;9.85;2.40;;;;;;;;;;5029007;28;20194;-67
2023/03/22 12:13:09;;;;;;;6.10;2.75;;;;;;;;;;5028453;28;20605;-67
2023/03/22 12:15:39;;;;;;;11.52;3.38;;;;;;;;;;5013585;28;20238;-67
2023/03/22 12:18:12;;;;;;;7.28;2.58;;;;;;;;;;5025165;28;20222;-67
2023/03/22 12:20:50;;;;;;;9.20;2.30;;;;;;;;;;5023320;28;20189;-68
2023/03/22 12:23:23;;;;;;;8.15;2.45;;;;;;;;;;5025963;28;20256;-67
2023/03/22 12:26:01;;;;;;;8.88;2.33;;;;;;;;;;5024753;28;20198;-67
2023/03/22 12:28:33;;;;;;;6.43;2.30;;;;;;;;;;5020453;28;20287;-67
2023/03/22 12:30:59;;;;;;;10.77;2.25;;;;;;;;;;5020615;28;20446;-66
2023/03/22 12:33:34;;;;;;;6.63;2.20;;;;;;;;;;5028278;28;20207;-67
2023/03/22 12:36:05;;;;;;;9.05;2.15;;;;;;;;;;5017799;28;20231;-67
2023/03/22 12:38:40;;;;;;;8.40;2.10;;;;;;;;;;5020210;28;20186;-67
2023/03/22 12:41:10;;;;;;;7.65;2.00;;;;;;;;;;5009978;28;20519;-67
2023/03/22 12:43:55;;;;;;;7.53;1.98;;;;;;;;;;5022608;28;20186;-67
2023/03/22 12:46:46;;;;;;;10.88;1.90;;;;;;;;;;5028313;28;20267;-66
2023/03/22 12:49:27;;;;;;;7.00;1.90;;;;;;;;;;5014467;28;20201;-66
2023/03/22 12:52:12;;;;;;;5.95;1.98;;;;;;;;;;5014760;28;20190;-67
2023/03/22 12:54:39;;;;;;;7.07;1.80;;;;;;;;;;5014043;28;20313;-66
2023/03/22 12:57:05;;;;;;;9.75;2.40;;;;;;;;;;5028866;28;20182;-66
2023/03/22 12:59:31;;;;;;;9.73;1.80;;;;;;;;;;5029180;28;20190;-66
2023/03/22 13:02:14;;;;;;;9.07;2.25;;;;;;;;;;5022834;28;20268;-66
2023/03/22 13:04:42;;;;;;;9.15;2.03;;;;;;;;;;5020179;28;20197;-66
2023/03/22 13:07:14;;;;;;;10.80;2.10;;;;;;;;;;5034804;28;20477;-66
2023/03/22 13:09:48;;;;;;;8.75;1.90;;;;;;;;;;5020900;28;20195;-66
2023/03/22 13:12:16;;;;;;;11.75;2.35;;;;;;;;;;5004523;28;20196;-66
2023/03/22 13:14:48;;;;;;;6.80;2.13;;;;;;;;;;5019898;28;20199;-66
2023/03/22 13:17:14;;;;;;;12.82;2.10;;;;;;;;;;5022741;28;20395;-66
2023/03/22 13:19:50;;;;;;;5.25;1.67;;;;;;;;;;5026781;28;20653;-66
2023/03/22 13:22:29;;;;;;;7.45;1.90;;;;;;;;;;5022667;28;20206;-67
2023/03/22 13:25:17;;;;;;;7.10;1.80;;;;;;;;;;5021352;28;20202;-66
2023/03/22 13:27:51;;;;;;;7.15;1.98;;;;;;;;;;5023097;28;20238;-66
2023/03/22 13:30:20;;;;;;;7.15;1.95;;;;;;;;;;5032417;28;20192;-66
2023/03/22 13:33:09;;;;;;;7.82;1.80;;;;;;;;;;5024646;28;20258;-66
2023/03/22 13:35:53;;;;;;;7.53;2.08;;;;;;;;;;5008761;28;20209;-67
2023/03/22 13:38:38;;;;;;;7.90;2.03;;;;;;;;;;5021984;28;20188;-66
2023/03/22 13:41:15;;;;;;;10.77;2.30;;;;;;;;;;5015133;28;20197;-66
2023/03/22 13:43:49;;;;;;;9.88;2.20;;;;;;;;;;5016507;28;20200;-66
2023/03/22 13:46:20;;;;;;;8.18;1.90;;;;;;;;;;5019983;28;20195;-67
2023/03/22 13:48:45;;;;;;;6.07;2.13;;;;;;;;;;5021297;28;20723;-66
2023/03/22 13:51:20;;;;;;;7.05;2.00;;;;;;;;;;5015859;28;20213;-66
2023/03/22 13:53:48;;;;;;;6.28;2.05;;;;;;;;;;5020369;28;20200;-65
2023/03/22 13:56:47;;;;;;;10.60;1.88;;;;;;;;;;5027593;28;20186;-65
2023/03/22 13:59:26;;;;;;;9.95;2.00;;;;;;;;;;5017072;28;20205;-66
2023/03/22 14:02:17;;;;;;;6.00;1.77;;;;;;;;;;5026182;28;20263;-66
2023/03/22 14:04:54;;;;;;;8.75;2.30;;;;;;;;;;5020440;28;20301;-66
2023/03/22 14:07:33;;;;;;;6.72;1.63;;;;;;;;;;5014083;28;20244;-66
2023/03/22 14:10:11;;;;;;;7.10;1.75;;;;;;;;;;5024604;28;20653;-66
2023/03/22 14:12:54;;;;;;;5.78;1.90;;;;;;;;;;5026660;28;20193;-67
2023/03/22 14:15:27;;;;;;;7.68;1.90;;;;;;;;;;5025537;28;20206;-66
2023/03/22 14:17:59;;;;;;;4.90;1.80;;;;;;;;;;5024004;28;20190;-66
2023/03/22 14:20:29;;;;;;;6.80;2.20;;;;;;;;;;5023295;28;20269;-67
2023/03/22 14:23:00;;;;;;;8.32;2.20;;;;;;;;;;5025784;28;20789;-66
2023/03/22 14:25:30;;;;;;;9.50;2.83;;;;;;;;;;5027934;28;20214;-66
2023/03/22 14:27:55;;;;;;;7.35;2.03;;;;;;;;;;5027342;28;20233;-66
2023/03/22 14:30:43;;;;;;;8.00;2.92;;;;;;;;;;5031624;28;20198;-66
2023/03/22 14:33:20;;;;;;;9.35;2.28;;;;;;;;;;5026305;28;20270;-67
2023/03/22 14:35:56;;;;;;;8.60;2.25;;;;;;;;;;5030614;28;20247;-66
2023/03/22 14:38:26;;;;;;;6.82;2.58;;;;;;;;;;5024063;28;20739;-66
2023/03/22 14:41:07;;;;;;;5.38;2.20;;;;;;;;;;5030153;28;20595;-66
2023/03/22 14:43:32;;;;;;;6.68;2.65;;;;;;;;;;5026305;28;20221;-66
2023/03/22 14:46:07;;;;;;;7.80;2.58;;;;;;;;;;5028018;28;20292;-67
2023/03/22 14:48:34;;;;;;;8.02;2.80;;;;;;;;;;5028927;28;20243;-67
2023/03/22 14:51:04;;;;;;;13.38;3.60;;;;;;;;;;5031210;28;20201;-67